createdAt,value
2019-06-01T07:38:52.194Z,100039.44
2019-06-01T07:41:25.170Z,100048.02
2019-06-01T07:43:57.320Z,100050.69
2019-06-01T07:46:29.403Z,100050.83
2019-06-01T07:49:01.629Z,100050.89
2019-06-01T07:51:33.790Z,100052.08
2019-06-01T07:54:06.091Z,100048.30
2019-06-01T07:56:38.324Z,100048.64
2019-06-01T07:59:10.551Z,100050.23
2019-06-01T08:01:42.707Z,100049.33
2019-06-01T08:04:15.068Z,100038.81
2019-06-01T08:06:48.805Z,100047.77
2019-06-01T08:09:22.641Z,100052.12
2019-06-01T08:11:55.316Z,100055.03
2019-06-01T08:14:28.630Z,100052.11
2019-06-01T08:17:01.087Z,100053.81
2019-06-01T08:19:33.272Z,100055.53
2019-06-01T08:22:05.529Z,100041.75
2019-06-01T08:24:37.695Z,100046.15
2019-06-01T08:27:09.945Z,100045.73
2019-06-01T08:29:42.028Z,100047.58
2019-06-01T08:32:14.266Z,100043.82
2019-06-01T08:34:46.510Z,100040.16
2019-06-01T08:37:18.673Z,100033.16
2019-06-01T08:39:50.918Z,100038.81
2019-06-01T08:42:23.460Z,100036.15
2019-06-01T08:44:55.613Z,100038.16
2019-06-01T08:47:27.902Z,100037.72
2019-06-01T08:50:00.190Z,100036.42
2019-06-01T08:52:32.339Z,100032.12
2019-06-01T08:55:06.687Z,100027.95
2019-06-01T08:57:38.823Z,100023.95
2019-06-01T09:00:11.950Z,100035.92
2019-06-01T09:02:44.194Z,100030.80
2019-06-01T09:05:24.472Z,100029.44
2019-06-01T09:07:50.118Z,100030.34
2019-06-01T09:10:22.392Z,100026.28
2019-06-01T09:12:55.523Z,100028.66
2019-06-01T09:15:27.682Z,100031.03
2019-06-01T09:17:59.911Z,100019.52
2019-06-01T09:20:35.270Z,100022.70
2019-06-01T09:23:05.744Z,100024.44
2019-06-01T09:25:38.023Z,100021.57
2019-06-01T09:28:10.387Z,100017.61
2019-06-01T09:30:42.524Z,100013.63
2019-06-01T09:33:14.818Z,100017.68
2019-06-01T09:35:55.480Z,100012.93
2019-06-01T09:38:20.894Z,100013.97
2019-06-01T09:40:53.032Z,100011.30
2019-06-01T09:43:26.465Z,100012.27
2019-06-01T09:45:58.766Z,100016.67
2019-06-01T09:48:31.443Z,100012.78
2019-06-01T09:51:03.675Z,100017.00
2019-06-01T09:53:36.209Z,100009.92
2019-06-01T09:56:08.494Z,100007.69
2019-06-01T09:58:40.661Z,100002.88
2019-06-01T10:01:12.821Z,100001.84
2019-06-01T10:03:44.890Z,99994.39
2019-06-01T10:06:17.002Z,100000.48
2019-06-01T10:08:49.240Z,99994.92
2019-06-01T10:11:21.331Z,99986.63
2019-06-01T10:13:53.359Z,99988.05
2019-06-01T10:16:25.408Z,99987.84
2019-06-01T10:19:14.122Z,99985.44
2019-06-01T10:22:02.876Z,99985.92
2019-06-01T10:24:35.185Z,99985.02
2019-06-01T10:27:07.295Z,99984.66
2019-06-01T10:29:40.072Z,99983.64
2019-06-01T10:32:12.338Z,99983.30
2019-06-01T10:34:44.455Z,99986.56
2019-06-01T10:37:16.595Z,99979.98
2019-06-01T10:39:48.733Z,99973.11
2019-06-01T10:42:20.935Z,99979.86
2019-06-01T10:44:53.097Z,99976.84
2019-06-01T10:47:25.151Z,99979.00
2019-06-01T10:49:57.232Z,99971.20
2019-06-01T10:52:29.385Z,99968.63
2019-06-01T10:55:01.525Z,99968.88
2019-06-01T10:57:34.509Z,99962.89
2019-06-01T11:00:11.689Z,99967.22
2019-06-01T11:02:43.852Z,99964.97
2019-06-01T11:05:17.465Z,99963.56
2019-06-01T11:07:49.626Z,99963.80
2019-06-01T11:10:22.035Z,99959.84
2019-06-01T11:12:54.202Z,99953.46
2019-06-01T11:15:26.344Z,99953.59
2019-06-01T11:17:58.482Z,99949.47
2019-06-01T11:20:30.623Z,99943.56
2019-06-01T11:23:03.005Z,99947.35
2019-06-01T11:25:35.650Z,99945.03
2019-06-01T11:28:07.870Z,99943.40
2019-06-01T11:30:40.046Z,99947.50
2019-06-01T11:33:13.221Z,99950.22
2019-06-01T11:35:45.557Z,99945.92
2019-06-01T11:38:17.720Z,99942.97
2019-06-01T11:40:49.942Z,99945.86
2019-06-01T11:43:23.632Z,99940.72
2019-06-01T11:45:55.873Z,99943.78
2019-06-01T11:48:28.055Z,99927.69
2019-06-01T11:51:00.276Z,99931.95
2019-06-01T11:53:32.510Z,99932.50
2019-06-01T11:56:04.727Z,99928.03
2019-06-01T11:58:37.198Z,99925.70
2019-06-01T12:01:09.396Z,99928.03
2019-06-01T12:03:41.807Z,99923.96
2019-06-01T12:06:15.030Z,99922.09
2019-06-01T12:08:47.659Z,99914.63
2019-06-01T12:11:19.838Z,99918.59
2019-06-01T12:13:52.021Z,99912.70
2019-06-01T12:16:24.466Z,99910.53
2019-06-01T12:18:56.624Z,99913.50
2019-06-01T12:21:28.690Z,99912.98
2019-06-01T12:24:00.819Z,99914.14
2019-06-01T12:26:33.070Z,99909.55
2019-06-01T12:29:05.931Z,99902.56
2019-06-01T12:31:38.096Z,99906.09
2019-06-01T12:34:10.240Z,99907.42
2019-06-01T12:36:42.731Z,99905.13
2019-06-01T12:39:15.154Z,99904.52
2019-06-01T12:41:47.818Z,99909.37
2019-06-01T12:44:20.087Z,99905.59
2019-06-01T12:46:53.025Z,99908.69
2019-06-01T12:49:25.466Z,99902.44
2019-06-01T12:51:57.604Z,99903.31
2019-06-01T12:54:29.897Z,99901.45
2019-06-01T12:57:02.221Z,99903.09
2019-06-01T12:59:34.439Z,99902.63
2019-06-01T13:02:06.978Z,99897.98
2019-06-01T13:04:40.555Z,99889.03
2019-06-01T13:07:12.904Z,99902.48
2019-06-01T13:09:46.117Z,99903.97
2019-06-01T13:12:18.354Z,99910.64
2019-06-01T13:14:52.243Z,99906.67
2019-06-01T13:17:24.429Z,99907.72
2019-06-01T13:19:56.671Z,99909.31
2019-06-01T13:22:28.788Z,99910.88
2019-06-01T13:25:02.305Z,99911.55
2019-06-01T13:27:34.793Z,99912.13
2019-06-01T13:30:09.627Z,99913.00
2019-06-01T13:32:42.413Z,99902.98
2019-06-01T13:35:14.890Z,99909.87
2019-06-01T13:37:47.006Z,99907.63
2019-06-01T13:40:19.258Z,99907.88
2019-06-01T13:42:51.390Z,99910.84
2019-06-01T13:45:23.631Z,99904.59
2019-06-01T13:47:55.713Z,99904.59
2019-06-01T13:50:27.862Z,99902.31
2019-06-01T13:53:00.928Z,99904.56
2019-06-01T13:55:33.117Z,99901.53
2019-06-01T13:58:05.197Z,99894.14
2019-06-01T14:00:37.321Z,99896.32
2019-06-01T14:03:12.508Z,99892.61
2019-06-01T14:05:44.748Z,99893.52
2019-06-01T14:08:28.642Z,99889.22
2019-06-01T14:10:51.876Z,99885.51
2019-06-01T14:13:24.006Z,99884.98
2019-06-01T14:15:56.150Z,99880.95
2019-06-01T14:18:28.298Z,99870.94
2019-06-01T14:21:00.380Z,99868.69
2019-06-01T14:23:32.513Z,99865.96
2019-06-01T14:26:04.824Z,99858.80
2019-06-01T14:28:36.983Z,99865.18
2019-06-01T14:31:09.190Z,99859.91
2019-06-01T14:33:41.344Z,99855.94
2019-06-01T14:36:13.491Z,99857.05
2019-06-01T14:38:47.649Z,99855.61
2019-06-01T14:41:19.485Z,99851.32
2019-06-01T14:43:51.668Z,99845.89
2019-06-01T14:46:23.893Z,99854.80
2019-06-01T14:48:57.390Z,99851.32
